Lolo, Montana
Current Conditions -  °F | °C
As of 10:53 PM on Thursday 27 Nov 2014 (Local Time) from KMSO Reporting Station
Overcast Overcast  
Wind Chill: 45°   Ceiling: 4400
Heat Index: 49°   Visibility: 10mi
Dew Point: 38°   Wind: 8mph
Humidity: 66%   Direction: 210°SSW
Pressure: 29.83"   Gusts: NA
Location:  46.75°N, 114.09°W
Report Text: KMSO 280553Z AUTO 21007KT 10SM BKN044 OVC050 09/03 A2983 RMK AO2 SLP108 60000 T00940033 10106 20067 55007
Loading
Personal Weather Stations






























Interactive Weather Map New forecast layout! Learn more

10-Day Weather Forecast

Advertisements
Track Severe Weather on mobile